Time;durP1;ratioP1;P1;durP2;ratioP2;P2;SDS_P1;SDS_P2;PMS_P1;PMS_P2;Temp;Humidity;BMP_temperature;BMP_pressure;BME280_temperature;BME280_humidity;BME280_pressure;Samples;Min_cycle;Max_cycle;Signal;HPM_P1;HPM_P2
2023/09/20 00:02:14;;;;;;;20.55;18.80;;;16.30;99.90;;;;;;4969956;28;20050;-75
2023/09/20 00:04:47;;;;;;;21.77;19.95;;;16.30;99.90;;;;;;4972403;28;20081;-73
2023/09/20 00:07:15;;;;;;;21.50;19.48;;;16.30;99.90;;;;;;4969460;28;20128;-73
2023/09/20 00:09:42;;;;;;;20.67;19.17;;;16.30;99.90;;;;;;4972406;28;20096;-73
2023/09/20 00:12:09;;;;;;;20.95;19.30;;;16.30;99.90;;;;;;4970188;28;20810;-73
2023/09/20 00:14:36;;;;;;;21.55;19.65;;;16.30;99.90;;;;;;4974912;28;20045;-74
2023/09/20 00:17:03;;;;;;;21.58;19.88;;;16.30;99.90;;;;;;4965617;28;20962;-73
2023/09/20 00:19:30;;;;;;;23.08;20.77;;;16.20;99.90;;;;;;4973667;28;20044;-73
2023/09/20 00:21:57;;;;;;;21.73;19.88;;;16.30;99.90;;;;;;4969547;28;20416;-73
2023/09/20 00:24:23;;;;;;;21.13;19.45;;;16.20;99.90;;;;;;4973992;28;20061;-74
2023/09/20 00:26:50;;;;;;;22.52;20.15;;;16.20;99.90;;;;;;4968383;28;20048;-73
2023/09/20 00:29:17;;;;;;;21.52;19.70;;;16.30;99.90;;;;;;4966087;28;20047;-73
2023/09/20 00:31:44;;;;;;;21.02;19.42;;;16.30;99.90;;;;;;4970338;28;20133;-71
2023/09/20 00:34:11;;;;;;;22.02;19.98;;;16.30;99.90;;;;;;4966739;28;20528;-73
2023/09/20 00:36:37;;;;;;;21.45;19.73;;;16.30;99.90;;;;;;4973371;28;20582;-73
2023/09/20 00:39:05;;;;;;;21.70;20.15;;;16.30;99.90;;;;;;4965597;28;20047;-73
2023/09/20 00:41:32;;;;;;;21.92;19.65;;;16.30;99.90;;;;;;4976332;28;20046;-73
2023/09/20 00:44:00;;;;;;;21.90;20.10;;;16.30;99.90;;;;;;4990487;28;20133;-72
2023/09/20 00:46:27;;;;;;;22.80;20.52;;;16.30;99.90;;;;;;4969348;28;20076;-73
2023/09/20 00:48:56;;;;;;;21.65;19.73;;;16.30;99.90;;;;;;4968991;28;20054;-72
2023/09/20 00:51:26;;;;;;;22.35;20.55;;;16.30;99.90;;;;;;4966645;28;20053;-72
2023/09/20 00:53:57;;;;;;;21.30;19.58;;;16.30;99.90;;;;;;4994271;28;20050;-72
2023/09/20 00:56:24;;;;;;;21.45;19.65;;;16.30;99.90;;;;;;4967217;28;20050;-73
2023/09/20 00:58:55;;;;;;;20.85;19.05;;;16.40;99.90;;;;;;4965308;28;20141;-73
2023/09/20 01:01:27;;;;;;;21.95;20.00;;;16.40;99.90;;;;;;4967831;28;20523;-72
2023/09/20 01:03:55;;;;;;;21.73;20.00;;;16.40;99.90;;;;;;4969504;28;20062;-72
2023/09/20 01:06:26;;;;;;;21.85;19.92;;;16.50;99.90;;;;;;4994241;28;20100;-73
2023/09/20 01:08:54;;;;;;;22.55;20.25;;;16.40;99.90;;;;;;4964580;28;20513;-73
2023/09/20 01:11:21;;;;;;;21.10;19.58;;;16.40;99.90;;;;;;4984092;28;20077;-73
2023/09/20 01:13:48;;;;;;;21.88;20.00;;;16.50;99.90;;;;;;4971915;28;20042;-71
2023/09/20 01:16:15;;;;;;;21.65;19.75;;;16.40;99.90;;;;;;4968140;28;20129;-73
2023/09/20 01:18:44;;;;;;;22.05;20.20;;;16.40;99.90;;;;;;4970170;28;20042;-72
2023/09/20 01:21:12;;;;;;;21.52;19.70;;;16.50;99.90;;;;;;4962655;28;20049;-72
2023/09/20 01:23:42;;;;;;;21.33;19.67;;;16.40;99.90;;;;;;4971443;28;20721;-72
2023/09/20 01:26:11;;;;;;;21.48;19.88;;;16.50;99.90;;;;;;4962489;28;20109;-73
2023/09/20 01:28:38;;;;;;;21.58;19.88;;;16.40;99.90;;;;;;4969285;28;20049;-73
2023/09/20 01:31:05;;;;;;;21.17;19.58;;;16.40;99.90;;;;;;4965786;28;20070;-73
2023/09/20 01:33:33;;;;;;;21.58;19.75;;;16.30;99.90;;;;;;4968795;28;20068;-72
2023/09/20 01:36:03;;;;;;;22.98;21.17;;;16.30;99.90;;;;;;4964967;28;20043;-73
2023/09/20 01:38:30;;;;;;;21.63;19.63;;;16.20;99.90;;;;;;4968363;28;20193;-73
2023/09/20 01:40:58;;;;;;;21.88;20.08;;;16.10;99.90;;;;;;4968555;28;20813;-72
2023/09/20 01:43:24;;;;;;;22.08;20.30;;;16.10;99.90;;;;;;4997587;28;20104;-72
2023/09/20 01:45:51;;;;;;;22.48;20.63;;;16.00;99.90;;;;;;4968263;28;20105;-73
2023/09/20 01:48:18;;;;;;;21.65;19.95;;;15.90;99.90;;;;;;4995881;28;20120;-73
2023/09/20 01:50:47;;;;;;;20.38;18.88;;;15.80;99.90;;;;;;4967306;28;20073;-72
2023/09/20 01:53:14;;;;;;;21.48;19.75;;;15.80;99.90;;;;;;4964216;28;20298;-72
2023/09/20 01:55:42;;;;;;;21.67;19.52;;;15.80;99.90;;;;;;4986014;28;20042;-73
2023/09/20 01:58:12;;;;;;;22.20;20.00;;;15.80;99.90;;;;;;4993643;28;20574;-72
2023/09/20 02:00:40;;;;;;;20.83;19.33;;;15.80;99.90;;;;;;4995332;28;20432;-72
2023/09/20 02:03:18;;;;;;;20.85;19.08;;;15.80;99.90;;;;;;4967106;28;20512;-73
2023/09/20 02:05:47;;;;;;;21.15;19.30;;;15.80;99.90;;;;;;4967438;28;20042;-73
2023/09/20 02:08:15;;;;;;;21.70;19.50;;;15.90;99.90;;;;;;4962130;28;20085;-73
2023/09/20 02:10:43;;;;;;;21.15;19.55;;;15.80;99.90;;;;;;4988080;28;20456;-72
2023/09/20 02:13:11;;;;;;;20.80;19.20;;;15.80;99.90;;;;;;4972221;28;20054;-73
2023/09/20 02:15:41;;;;;;;21.27;19.17;;;15.80;99.90;;;;;;4970239;28;20531;-72
2023/09/20 02:18:09;;;;;;;21.02;19.20;;;15.90;99.90;;;;;;4970343;28;20050;-74
2023/09/20 02:20:37;;;;;;;20.15;18.75;;;15.90;99.90;;;;;;4975155;28;20047;-73
2023/09/20 02:23:07;;;;;;;20.73;19.02;;;15.90;99.90;;;;;;4973662;28;20042;-72
2023/09/20 02:25:35;;;;;;;20.08;18.67;;;15.90;99.90;;;;;;4969100;28;20570;-73
2023/09/20 02:28:05;;;;;;;20.92;19.42;;;16.00;99.90;;;;;;4969705;28;20528;-72
2023/09/20 02:30:35;;;;;;;20.23;18.83;;;16.00;99.90;;;;;;4968903;28;20047;-73
2023/09/20 02:33:05;;;;;;;21.85;19.80;;;16.00;99.90;;;;;;4975495;28;20534;-73
2023/09/20 02:35:33;;;;;;;21.40;19.58;;;16.10;99.90;;;;;;4974513;28;20037;-73
2023/09/20 02:38:04;;;;;;;21.52;19.70;;;16.10;99.90;;;;;;4970164;28;20109;-73
2023/09/20 02:40:33;;;;;;;21.88;19.75;;;16.20;99.90;;;;;;4957074;28;20046;-73
2023/09/20 02:43:00;;;;;;;21.63;19.80;;;16.30;99.90;;;;;;4975431;28;20040;-73
2023/09/20 02:45:29;;;;;;;21.85;19.88;;;16.30;99.90;;;;;;4971852;28;20074;-73
2023/09/20 02:47:57;;;;;;;20.77;19.08;;;16.40;99.90;;;;;;4973149;28;20050;-72
2023/09/20 02:50:25;;;;;;;20.92;19.42;;;16.50;99.90;;;;;;4995636;28;20042;-73
2023/09/20 02:52:53;;;;;;;21.38;19.60;;;16.50;99.90;;;;;;4982179;28;20049;-72
2023/09/20 02:55:21;;;;;;;22.23;19.85;;;16.50;99.90;;;;;;4968486;28;20047;-73
2023/09/20 02:57:52;;;;;;;20.95;19.25;;;16.60;99.90;;;;;;4979028;28;20211;-73
2023/09/20 03:00:27;;;;;;;21.70;19.83;;;16.60;99.90;;;;;;4968989;28;20160;-72
2023/09/20 03:02:56;;;;;;;21.08;19.23;;;16.50;99.90;;;;;;4978560;28;20141;-72
2023/09/20 03:05:27;;;;;;;20.80;19.27;;;16.40;99.90;;;;;;4994630;28;20058;-72
2023/09/20 03:07:55;;;;;;;21.80;19.77;;;16.30;99.90;;;;;;4972848;28;20054;-72
2023/09/20 03:10:23;;;;;;;21.17;19.55;;;16.20;99.90;;;;;;4995361;28;20054;-73
2023/09/20 03:12:51;;;;;;;20.90;19.30;;;16.00;99.90;;;;;;4973911;28;20042;-74
2023/09/20 03:15:23;;;;;;;20.35;18.63;;;15.90;99.90;;;;;;4970801;28;20721;-72
2023/09/20 03:18:00;;;;;;;22.40;20.27;;;15.80;99.90;;;;;;4961802;28;20055;-73
2023/09/20 03:20:32;;;;;;;21.65;19.42;;;15.70;99.90;;;;;;4974921;28;20042;-73
2023/09/20 03:23:04;;;;;;;20.75;18.85;;;15.70;99.90;;;;;;4973024;28;20073;-73
2023/09/20 03:25:37;;;;;;;22.52;19.83;;;15.60;99.90;;;;;;5000126;28;20034;-74
2023/09/20 03:28:30;;;;;;;20.83;19.00;;;15.60;99.90;;;;;;4971146;28;20105;-72
2023/09/20 03:30:59;;;;;;;20.77;19.02;;;15.60;99.90;;;;;;4997322;28;20105;-74
2023/09/20 03:33:27;;;;;;;21.02;19.25;;;15.50;99.90;;;;;;4990354;28;20037;-74
2023/09/20 03:35:53;;;;;;;20.48;18.70;;;15.50;99.90;;;;;;4985579;28;20047;-73
2023/09/20 03:38:21;;;;;;;20.92;18.80;;;15.50;99.90;;;;;;4972488;28;20539;-75
2023/09/20 03:40:48;;;;;;;20.40;18.55;;;15.40;99.90;;;;;;4970823;28;20100;-72
2023/09/20 03:43:14;;;;;;;19.60;17.95;;;15.40;99.90;;;;;;4976740;28;20046;-73
2023/09/20 03:45:47;;;;;;;20.83;18.88;;;15.40;99.90;;;;;;4972083;28;20097;-72
2023/09/20 03:48:15;;;;;;;21.15;19.08;;;15.30;99.90;;;;;;4967383;28;20061;-73
2023/09/20 03:50:43;;;;;;;20.20;18.48;;;15.30;99.90;;;;;;4969932;28;20142;-72
2023/09/20 03:53:11;;;;;;;20.25;18.70;;;15.30;99.90;;;;;;4978935;28;20149;-72
2023/09/20 03:55:40;;;;;;;20.60;18.77;;;15.30;99.90;;;;;;4973198;28;20050;-73
2023/09/20 03:58:07;;;;;;;20.63;18.63;;;15.30;99.90;;;;;;4971712;28;20054;-72
2023/09/20 04:00:36;;;;;;;20.27;18.65;;;15.30;99.90;;;;;;4965213;28;20523;-74
2023/09/20 04:03:11;;;;;;;20.40;18.58;;;15.30;99.90;;;;;;4968518;28;20303;-74
2023/09/20 04:05:39;;;;;;;20.08;18.48;;;15.20;99.90;;;;;;4969623;28;20508;-74
2023/09/20 04:08:16;;;;;;;19.83;18.03;;;15.20;99.90;;;;;;4966441;28;20077;-74
2023/09/20 04:10:45;;;;;;;20.55;18.70;;;15.20;99.90;;;;;;4970910;28;20058;-72
2023/09/20 04:13:12;;;;;;;19.60;18.00;;;15.20;99.90;;;;;;4964239;28;20441;-72
2023/09/20 04:15:40;;;;;;;19.88;18.20;;;15.10;99.90;;;;;;4974129;28;20042;-72
2023/09/20 04:18:12;;;;;;;20.23;18.33;;;15.20;99.90;;;;;;4973150;28;20768;-72
2023/09/20 04:20:40;;;;;;;19.35;17.80;;;15.30;99.90;;;;;;4977678;28;20236;-72
2023/09/20 04:23:09;;;;;;;19.30;17.80;;;15.30;99.90;;;;;;4968472;28;20046;-74
2023/09/20 04:25:36;;;;;;;20.17;18.30;;;15.30;99.90;;;;;;4970668;28;20045;-74
2023/09/20 04:28:03;;;;;;;20.90;19.02;;;15.20;99.90;;;;;;4971534;28;20055;-72
2023/09/20 04:30:30;;;;;;;20.45;18.45;;;15.20;99.90;;;;;;4995170;28;20049;-73
2023/09/20 04:32:58;;;;;;;20.13;18.30;;;15.20;99.90;;;;;;4972295;28;20054;-73
2023/09/20 04:35:32;;;;;;;19.77;18.27;;;15.20;99.90;;;;;;4992901;28;20054;-74
2023/09/20 04:38:00;;;;;;;20.55;18.33;;;15.30;99.90;;;;;;4971697;28;20043;-73
2023/09/20 04:40:27;;;;;;;20.33;18.40;;;15.30;99.90;;;;;;4991130;28;20124;-73
2023/09/20 04:42:54;;;;;;;20.33;18.42;;;15.40;99.90;;;;;;4978224;28;20100;-75
2023/09/20 04:45:22;;;;;;;19.70;17.88;;;15.40;99.90;;;;;;4971248;28;20665;-71
2023/09/20 04:47:50;;;;;;;19.77;18.08;;;15.40;99.90;;;;;;4977510;28;20074;-73
2023/09/20 04:50:17;;;;;;;19.88;18.13;;;15.40;99.90;;;;;;4970922;28;20135;-74
2023/09/20 04:52:46;;;;;;;19.38;17.67;;;15.30;99.90;;;;;;4971471;28;20049;-74
2023/09/20 04:55:15;;;;;;;19.58;17.90;;;15.30;99.90;;;;;;4982792;28;20125;-74
2023/09/20 04:57:42;;;;;;;22.80;18.80;;;15.30;99.90;;;;;;4969862;28;20034;-74
2023/09/20 05:00:09;;;;;;;18.92;17.33;;;15.30;99.90;;;;;;4962122;28;20054;-73
2023/09/20 05:02:36;;;;;;;19.15;17.63;;;15.30;99.90;;;;;;4986905;28;20105;-73
2023/09/20 05:05:05;;;;;;;19.42;17.83;;;15.30;99.90;;;;;;4971090;28;20477;-74
2023/09/20 05:07:34;;;;;;;20.83;18.67;;;15.30;99.90;;;;;;4969424;28;20049;-73
2023/09/20 05:10:02;;;;;;;20.60;18.42;;;15.30;99.90;;;;;;4971831;28;20137;-74
2023/09/20 05:12:29;;;;;;;21.20;19.25;;;15.40;99.90;;;;;;4984418;28;20046;-74
2023/09/20 05:14:57;;;;;;;20.75;18.65;;;15.40;99.90;;;;;;4972834;28;20038;-72
2023/09/20 05:17:23;;;;;;;20.40;18.58;;;15.40;99.90;;;;;;4952771;28;20050;-72
2023/09/20 05:19:50;;;;;;;19.65;17.88;;;15.40;99.90;;;;;;4972639;28;20050;-72
2023/09/20 05:22:17;;;;;;;20.05;18.05;;;15.40;99.90;;;;;;4967399;28;20070;-72
2023/09/20 05:24:44;;;;;;;18.05;16.88;;;15.40;99.90;;;;;;4968585;28;20050;-72
2023/09/20 05:27:11;;;;;;;20.90;19.05;;;15.30;99.90;;;;;;4963562;28;20050;-72
2023/09/20 05:29:38;;;;;;;20.85;19.00;;;15.30;99.90;;;;;;4969321;28;20057;-72
2023/09/20 05:32:05;;;;;;;20.60;19.17;;;15.30;99.90;;;;;;4950176;28;20043;-72
2023/09/20 05:34:34;;;;;;;21.27;19.13;;;15.30;99.90;;;;;;4952768;28;20051;-72
2023/09/20 05:37:01;;;;;;;19.98;18.23;;;15.20;99.90;;;;;;4969401;28;20046;-72
2023/09/20 05:39:28;;;;;;;19.55;17.92;;;15.10;99.90;;;;;;4966007;28;20042;-72
2023/09/20 05:41:58;;;;;;;20.05;18.52;;;15.10;99.90;;;;;;4968940;28;20054;-72
2023/09/20 05:44:25;;;;;;;20.23;18.52;;;15.00;99.90;;;;;;4966292;28;20054;-73
2023/09/20 05:46:52;;;;;;;19.20;17.52;;;14.80;99.90;;;;;;4972919;28;20096;-73
2023/09/20 05:49:21;;;;;;;20.38;18.70;;;14.60;99.90;;;;;;4968537;28;20134;-73
2023/09/20 05:51:52;;;;;;;18.67;17.48;;;14.50;99.90;;;;;;4970734;28;20133;-72
2023/09/20 05:54:19;;;;;;;18.70;17.23;;;14.30;99.90;;;;;;4965846;28;20752;-72
2023/09/20 05:56:46;;;;;;;18.05;16.67;;;14.20;99.90;;;;;;4971340;28;20408;-72
2023/09/20 05:59:13;;;;;;;18.98;17.42;;;14.10;99.90;;;;;;4964461;28;20074;-72
2023/09/20 06:01:40;;;;;;;17.25;15.98;;;14.10;99.90;;;;;;4966602;28;20057;-72
2023/09/20 06:04:10;;;;;;;18.15;16.75;;;14.10;99.90;;;;;;4992713;28;20050;-72
2023/09/20 06:06:37;;;;;;;18.25;16.73;;;14.10;99.90;;;;;;4981987;28;20413;-72
2023/09/20 06:09:05;;;;;;;18.20;16.70;;;14.10;99.90;;;;;;4968888;28;20049;-73
2023/09/20 06:11:32;;;;;;;17.98;16.45;;;14.10;99.90;;;;;;4968448;28;20055;-73
2023/09/20 06:13:58;;;;;;;17.88;16.25;;;14.20;99.90;;;;;;4971856;28;20047;-72
2023/09/20 06:16:25;;;;;;;17.92;16.33;;;14.10;99.90;;;;;;4964125;28;20069;-72
2023/09/20 06:18:52;;;;;;;18.65;16.77;;;14.20;99.90;;;;;;4965428;28;20054;-73
2023/09/20 06:21:32;;;;;;;17.85;16.27;;;14.20;99.90;;;;;;4969717;28;20045;-73
2023/09/20 06:23:59;;;;;;;17.65;16.15;;;14.30;99.90;;;;;;4970419;28;20119;-73
2023/09/20 06:26:26;;;;;;;18.90;17.13;;;14.30;99.90;;;;;;4966061;28;20708;-73
2023/09/20 06:28:53;;;;;;;18.02;16.35;;;14.40;99.90;;;;;;4965141;28;20129;-73
2023/09/20 06:31:20;;;;;;;17.25;15.88;;;14.50;99.90;;;;;;4964293;28;20053;-73
2023/09/20 06:33:47;;;;;;;17.17;15.90;;;14.60;99.90;;;;;;4968877;28;20431;-72
2023/09/20 06:36:17;;;;;;;16.88;15.52;;;14.60;99.90;;;;;;4965230;28;20049;-72
2023/09/20 06:38:46;;;;;;;17.33;15.77;;;14.70;99.90;;;;;;4961917;28;20553;-73
2023/09/20 06:41:13;;;;;;;17.48;16.10;;;14.70;99.90;;;;;;4966022;28;20046;-73
2023/09/20 06:43:41;;;;;;;18.02;16.70;;;14.80;99.90;;;;;;4972253;28;20230;-72
2023/09/20 06:46:09;;;;;;;18.45;16.70;;;14.90;99.90;;;;;;4981468;28;20047;-72
2023/09/20 06:48:37;;;;;;;19.10;17.52;;;15.00;99.90;;;;;;4987504;28;20517;-73
2023/09/20 06:51:04;;;;;;;18.90;17.20;;;15.10;99.90;;;;;;4972060;28;20590;-73
2023/09/20 06:53:30;;;;;;;19.20;17.60;;;15.30;99.90;;;;;;4966322;28;20057;-73
2023/09/20 06:55:59;;;;;;;19.63;17.98;;;15.40;99.90;;;;;;4971008;28;20524;-74
2023/09/20 06:58:26;;;;;;;18.08;16.88;;;15.40;99.90;;;;;;4972446;28;21191;-73
2023/09/20 07:00:53;;;;;;;19.65;17.95;;;15.40;99.90;;;;;;4970945;28;20057;-72
2023/09/20 07:03:20;;;;;;;18.90;17.15;;;15.40;99.90;;;;;;4969706;28;20050;-76
2023/09/20 07:05:48;;;;;;;19.67;18.13;;;15.50;99.90;;;;;;4971856;28;20072;-73
2023/09/20 07:08:15;;;;;;;20.10;18.38;;;15.60;99.90;;;;;;4963364;28;20141;-73
2023/09/20 07:10:42;;;;;;;19.80;18.65;;;15.60;99.90;;;;;;4970323;28;20497;-73
2023/09/20 07:13:10;;;;;;;19.83;18.27;;;15.60;99.90;;;;;;4971013;28;20081;-71
2023/09/20 07:15:39;;;;;;;19.45;18.02;;;15.60;99.90;;;;;;4968940;28;20054;-73
2023/09/20 07:18:12;;;;;;;18.48;17.08;;;15.60;99.90;;;;;;4967462;28;20065;-73
2023/09/20 07:20:41;;;;;;;18.50;17.17;;;15.50;99.90;;;;;;4967959;28;20049;-73
2023/09/20 07:23:12;;;;;;;19.67;18.10;;;15.50;99.90;;;;;;4981641;28;20088;-73
2023/09/20 07:25:39;;;;;;;18.90;17.52;;;15.60;99.90;;;;;;4969184;28;20061;-73
2023/09/20 07:28:06;;;;;;;19.80;18.23;;;15.60;99.90;;;;;;4972756;28;20050;-73
2023/09/20 07:30:55;;;;;;;18.50;17.08;;;15.70;99.90;;;;;;4980312;28;20042;-73
2023/09/20 07:33:23;;;;;;;19.02;17.55;;;15.80;99.90;;;;;;4968704;28;20058;-73
2023/09/20 07:35:58;;;;;;;19.55;18.20;;;16.00;99.90;;;;;;4973057;28;20128;-72
2023/09/20 07:38:28;;;;;;;20.38;18.70;;;16.00;99.90;;;;;;4969602;28;20221;-73
2023/09/20 07:41:09;;;;;;;20.02;18.40;;;16.00;99.90;;;;;;4997466;23;20527;-78
2023/09/20 07:43:43;;;;;;;19.85;18.15;;;16.00;99.90;;;;;;4983162;28;20528;-77
2023/09/20 07:46:13;;;;;;;20.08;18.77;;;16.10;99.90;;;;;;4984780;28;20038;-75
2023/09/20 07:48:50;;;;;;;20.38;19.17;;;16.30;99.90;;;;;;4989055;28;20084;-75
2023/09/20 07:51:29;;;;;;;20.58;19.23;;;16.60;99.90;;;;;;4982873;28;20306;-76
2023/09/20 07:53:56;;;;;;;21.65;19.70;;;16.90;99.90;;;;;;5003126;28;20411;-75
2023/09/20 07:56:24;;;;;;;21.58;19.80;;;17.20;99.90;;;;;;4984576;28;20038;-74
2023/09/20 07:58:53;;;;;;;21.08;19.67;;;17.40;99.90;;;;;;4969802;28;20042;-75
2023/09/20 08:01:22;;;;;;;21.58;19.98;;;17.70;99.90;;;;;;4982881;28;20038;-75
2023/09/20 08:03:51;;;;;;;21.42;20.02;;;17.90;99.90;;;;;;4985978;28;20516;-76
2023/09/20 08:06:21;;;;;;;20.77;19.20;;;18.00;99.90;;;;;;4993535;28;20075;-76
2023/09/20 08:08:48;;;;;;;21.88;19.85;;;18.30;99.90;;;;;;4987441;28;20074;-77
2023/09/20 08:11:16;;;;;;;21.95;20.23;;;18.60;99.90;;;;;;4983742;28;20431;-77
2023/09/20 08:13:55;;;;;;;21.20;19.88;;;18.60;99.90;;;;;;4988934;28;20048;-77
2023/09/20 08:16:24;;;;;;;20.92;19.52;;;18.80;99.90;;;;;;4980367;28;20044;-77
2023/09/20 08:19:37;;;;;;;21.80;20.20;;;19.00;99.90;;;;;;4987031;28;20076;-77
2023/09/20 08:21:56;;;;;;;22.52;20.67;;;19.00;99.90;;;;;;4982986;28;20140;-77
2023/09/20 09:00:24;;;;;;;23.95;22.08;;;19.50;99.90;;;;;;4996472;28;20074;-75
2023/09/20 09:02:57;;;;;;;38.08;23.52;;;19.60;99.90;;;;;;4972809;28;20536;-77
2023/09/20 09:05:27;;;;;;;24.33;22.40;;;19.80;99.90;;;;;;4966293;28;20662;-77
2023/09/20 09:07:56;;;;;;;23.52;21.83;;;19.70;99.90;;;;;;4984414;28;20060;-76
2023/09/20 09:10:24;;;;;;;24.80;23.00;;;19.60;99.90;;;;;;4979335;28;20046;-77
2023/09/20 09:12:50;;;;;;;24.08;22.42;;;19.70;99.90;;;;;;4987391;28;20052;-76
2023/09/20 09:15:17;;;;;;;24.02;22.13;;;19.60;99.90;;;;;;4982818;28;20068;-75
2023/09/20 09:17:46;;;;;;;23.58;21.92;;;19.70;99.90;;;;;;4984796;28;20045;-76
2023/09/20 09:20:15;;;;;;;25.02;23.42;;;20.00;99.90;;;;;;4982671;28;20141;-75
2023/09/20 09:22:44;;;;;;;25.52;23.88;;;20.20;99.90;;;;;;4968513;28;20091;-77
2023/09/20 09:25:30;;;;;;;125.40;31.80;;;20.40;99.90;;;;;;4969664;28;20057;-77
2023/09/20 09:27:59;;;;;;;23.98;22.33;;;20.70;99.90;;;;;;4983322;28;20107;-77
2023/09/20 09:30:26;;;;;;;24.55;22.63;;;21.00;99.90;;;;;;4976569;28;20069;-76
2023/09/20 09:32:52;;;;;;;24.58;22.45;;;21.30;99.90;;;;;;4986697;28;20034;-77
2023/09/20 09:35:19;;;;;;;66.13;26.40;;;21.30;99.90;;;;;;4981048;28;20117;-76
2023/09/20 09:38:06;;;;;;;43.03;25.02;;;21.40;99.90;;;;;;4986886;28;20519;-76
2023/09/20 09:40:51;;;;;;;24.63;22.95;;;21.60;99.90;;;;;;4983948;28;20053;-76
2023/09/20 09:43:20;;;;;;;25.08;23.10;;;21.80;99.90;;;;;;4983555;28;20049;-76
2023/09/20 09:45:49;;;;;;;26.00;24.40;;;21.90;99.90;;;;;;4987488;28;20046;-77
2023/09/20 09:48:16;;;;;;;25.58;23.48;;;21.90;99.90;;;;;;4986584;28;20510;-76
2023/09/20 09:50:46;;;;;;;48.25;25.55;;;21.80;99.90;;;;;;4985343;28;22575;-76
2023/09/20 09:53:20;;;;;;;25.40;23.50;;;21.60;99.90;;;;;;4984853;28;20038;-77
2023/09/20 09:55:49;;;;;;;24.85;23.35;;;21.80;99.90;;;;;;4982276;28;20121;-76
2023/09/20 09:58:16;;;;;;;965.38;203.23;;;21.90;99.90;;;;;;4969882;28;20053;-77
2023/09/20 10:00:49;;;;;;;363.20;76.30;;;22.10;99.90;;;;;;4980865;28;21131;-76
2023/09/20 10:03:27;;;;;;;24.92;23.33;;;22.10;99.90;;;;;;4986323;28;20100;-76
2023/09/20 10:06:10;;;;;;;26.65;24.85;;;22.00;99.90;;;;;;4970774;28;20129;-79
2023/09/20 10:08:40;;;;;;;26.38;24.55;;;22.20;99.90;;;;;;4985310;28;20641;-77
2023/09/20 10:11:08;;;;;;;26.45;24.33;;;22.30;99.90;;;;;;4986772;28;20124;-77
2023/09/20 10:13:37;;;;;;;25.48;23.80;;;22.30;99.90;;;;;;4984276;28;20046;-77
2023/09/20 10:16:06;;;;;;;25.25;23.67;;;22.30;99.90;;;;;;4984977;28;20046;-77
2023/09/20 10:18:51;;;;;;;26.27;24.70;;;22.20;99.90;;;;;;4982709;28;20062;-77
2023/09/20 10:21:27;;;;;;;25.70;24.15;;;22.10;99.90;;;;;;4981570;28;20078;-76
2023/09/20 10:24:00;;;;;;;25.15;23.52;;;22.30;99.90;;;;;;4990059;28;20053;-76
2023/09/20 10:26:29;;;;;;;24.05;22.45;;;22.40;99.90;;;;;;4980914;28;20500;-77
2023/09/20 10:29:24;;;;;;;49.00;24.25;;;22.40;99.90;;;;;;5000878;28;20058;-77
2023/09/20 10:32:06;;;;;;;26.13;23.42;;;22.30;99.90;;;;;;4990846;28;20082;-77
2023/09/20 10:34:37;;;;;;;85.95;27.27;;;22.00;99.90;;;;;;4988602;28;20042;-77
2023/09/20 10:37:08;;;;;;;23.90;22.15;;;21.80;99.90;;;;;;4988047;28;20042;-76
2023/09/20 10:39:35;;;;;;;23.35;21.98;;;21.50;99.90;;;;;;5005406;28;20068;-77
2023/09/20 10:42:09;;;;;;;23.30;21.75;;;21.30;99.90;;;;;;4992071;28;20057;-77
2023/09/20 10:44:40;;;;;;;22.90;21.40;;;21.10;99.90;;;;;;4988169;28;20776;-77
2023/09/20 10:47:11;;;;;;;25.45;23.48;;;21.00;99.90;;;;;;4990581;28;20049;-77
2023/09/20 10:49:42;;;;;;;44.58;25.13;;;21.10;99.90;;;;;;4986766;28;20049;-76
2023/09/20 10:52:09;;;;;;;24.90;23.15;;;21.20;99.90;;;;;;4986593;28;20516;-78
2023/09/20 10:54:39;;;;;;;25.48;23.67;;;21.30;99.90;;;;;;4971439;28;20065;-77
2023/09/20 10:57:10;;;;;;;23.45;21.92;;;21.40;99.90;;;;;;4990613;28;20571;-76
2023/09/20 10:59:40;;;;;;;24.35;22.65;;;21.50;99.90;;;;;;4986793;28;20045;-77
2023/09/20 11:02:09;;;;;;;24.45;22.85;;;21.50;99.90;;;;;;4992283;28;20508;-76
2023/09/20 11:04:37;;;;;;;25.63;23.67;;;21.60;99.90;;;;;;4989247;28;20046;-77
2023/09/20 11:07:05;;;;;;;25.23;23.38;;;21.80;99.90;;;;;;4989297;28;20058;-79
2023/09/20 11:09:33;;;;;;;292.20;43.20;;;21.90;99.90;;;;;;4971052;28;20476;-78
2023/09/20 11:12:06;;;;;;;109.40;29.42;;;22.10;99.90;;;;;;4990054;28;20097;-76
2023/09/20 11:14:35;;;;;;;52.90;25.35;;;22.10;99.90;;;;;;4987346;28;20050;-77
2023/09/20 11:17:07;;;;;;;27.38;25.35;;;22.40;99.90;;;;;;4989075;28;20134;-76
2023/09/20 11:19:35;;;;;;;69.60;26.73;;;22.60;99.90;;;;;;4986464;28;20050;-77
2023/09/20 11:22:03;;;;;;;60.08;26.45;;;22.70;99.90;;;;;;4987518;28;20046;-77
2023/09/20 11:24:30;;;;;;;31.52;25.38;;;22.90;99.90;;;;;;4967574;28;21151;-76
2023/09/20 11:26:57;;;;;;;1133.50;188.35;;;23.10;99.90;;;;;;4990600;28;20042;-76
2023/09/20 11:29:25;;;;;;;26.35;24.30;;;23.30;99.90;;;;;;4989528;28;20034;-77
2023/09/20 11:31:58;;;;;;;25.70;23.98;;;23.60;99.90;;;;;;4989973;28;20668;-77
2023/09/20 11:34:28;;;;;;;25.65;24.05;;;23.70;99.90;;;;;;4985703;28;20042;-76
2023/09/20 11:36:55;;;;;;;25.05;23.55;;;23.50;99.90;;;;;;4989200;28;20050;-76
2023/09/20 11:39:28;;;;;;;24.98;23.08;;;23.50;99.90;;;;;;4973814;28;20045;-77
2023/09/20 11:42:01;;;;;;;39.05;24.25;;;23.50;99.90;;;;;;4988221;28;20046;-77
2023/09/20 11:44:33;;;;;;;25.77;24.00;;;23.50;99.90;;;;;;4985110;28;20049;-77
2023/09/20 11:47:00;;;;;;;25.85;24.25;;;23.40;99.90;;;;;;4990946;28;20315;-77
2023/09/20 11:49:28;;;;;;;27.02;24.85;;;23.40;99.90;;;;;;4972185;28;20127;-78
2023/09/20 11:51:57;;;;;;;27.08;24.67;;;23.40;99.90;;;;;;4972036;28;20417;-78
2023/09/20 11:54:28;;;;;;;26.90;24.98;;;23.40;99.90;;;;;;4969822;28;20054;-77
2023/09/20 11:56:59;;;;;;;25.05;23.27;;;23.20;99.90;;;;;;4983676;28;20403;-77
2023/09/20 11:59:26;;;;;;;26.00;24.30;;;23.20;99.90;;;;;;4985240;28;20451;-77
2023/09/20 12:01:53;;;;;;;25.08;23.52;;;22.90;99.90;;;;;;4985383;28;20038;-78
2023/09/20 12:04:20;;;;;;;26.23;24.52;;;22.90;99.90;;;;;;4986165;28;20046;-80
2023/09/20 12:06:48;;;;;;;25.95;24.20;;;23.00;99.90;;;;;;4985235;28;20053;-79
2023/09/20 12:09:16;;;;;;;26.88;25.10;;;23.10;99.90;;;;;;4984292;28;20057;-80
2023/09/20 12:11:43;;;;;;;26.48;24.50;;;23.30;99.90;;;;;;4985626;28;20039;-79
2023/09/20 12:14:13;;;;;;;24.60;23.00;;;23.30;99.90;;;;;;4990150;28;20037;-79
2023/09/20 12:16:41;;;;;;;25.70;23.55;;;23.40;99.90;;;;;;4985340;28;20053;-80
2023/09/20 12:19:08;;;;;;;26.80;24.80;;;23.30;99.90;;;;;;4990742;28;20676;-79
2023/09/20 12:21:35;;;;;;;25.88;24.15;;;23.40;99.90;;;;;;4968273;28;20065;-80
2023/09/20 12:24:02;;;;;;;25.35;23.83;;;23.70;99.90;;;;;;4992700;28;20064;-76
2023/09/20 12:26:29;;;;;;;27.48;25.67;;;23.70;99.90;;;;;;4982864;28;20049;-79
2023/09/20 12:28:56;;;;;;;27.45;25.45;;;23.40;99.90;;;;;;4987145;28;20125;-79
2023/09/20 12:31:23;;;;;;;27.58;25.73;;;23.60;99.90;;;;;;4983521;28;20093;-78
2023/09/20 12:33:52;;;;;;;27.58;25.77;;;23.50;99.90;;;;;;4986998;28;20104;-78
2023/09/20 12:36:23;;;;;;;27.10;25.17;;;23.70;99.90;;;;;;4991687;28;20636;-78
2023/09/20 12:38:50;;;;;;;29.00;26.63;;;23.70;99.90;;;;;;4989035;28;20064;-78
2023/09/20 12:41:20;;;;;;;27.80;26.00;;;23.40;99.90;;;;;;4987052;28;20056;-78
2023/09/20 12:43:49;;;;;;;26.83;25.13;;;23.10;99.90;;;;;;4980778;28;20698;-78
2023/09/20 12:46:17;;;;;;;27.23;25.52;;;22.90;99.90;;;;;;4991038;28;20133;-78
2023/09/20 12:48:44;;;;;;;27.52;25.60;;;23.00;99.90;;;;;;4973478;28;20124;-78
2023/09/20 12:51:12;;;;;;;27.25;25.58;;;23.10;99.90;;;;;;4955080;28;20214;-79
2023/09/20 12:53:39;;;;;;;27.77;26.00;;;23.10;99.90;;;;;;4982612;28;20042;-79
2023/09/20 12:56:09;;;;;;;27.38;25.58;;;23.10;99.90;;;;;;4976843;28;20108;-79
2023/09/20 12:58:35;;;;;;;26.95;25.23;;;23.20;99.90;;;;;;4981522;28;20049;-77
2023/09/20 13:01:04;;;;;;;27.35;25.63;;;23.10;99.90;;;;;;4989220;28;20049;-78
2023/09/20 13:03:31;;;;;;;28.75;26.77;;;22.90;99.90;;;;;;4980987;28;20053;-78
2023/09/20 13:05:58;;;;;;;27.35;25.52;;;22.80;99.90;;;;;;4960177;28;20754;-78
2023/09/20 13:08:25;;;;;;;29.55;27.45;;;22.90;99.90;;;;;;4950668;28;20046;-79
2023/09/20 13:10:52;;;;;;;28.80;27.10;;;22.90;99.90;;;;;;4971694;28;20038;-77
2023/09/20 13:13:24;;;;;;;28.88;27.08;;;22.90;99.90;;;;;;4984926;28;20057;-78